createdAt,value
2019-01-18T00:02:07.890Z,97772.55
2019-01-18T00:04:37.813Z,97772.49
2019-01-18T00:07:08.013Z,97774.74
2019-01-18T00:09:37.998Z,97775.00
2019-01-18T00:12:08.288Z,97772.56
2019-01-18T00:14:38.215Z,97768.23
2019-01-18T00:17:08.122Z,97763.62
2019-01-18T00:19:38.280Z,97767.33
2019-01-18T00:22:08.175Z,97763.84
2019-01-18T00:24:38.114Z,97758.38
2019-01-18T00:27:08.263Z,97762.44
2019-01-18T00:29:38.184Z,97771.41
2019-01-18T00:32:08.431Z,97771.98
2019-01-18T00:34:38.324Z,97769.25
2019-01-18T00:37:08.738Z,97775.84
2019-01-18T00:39:39.442Z,97777.70
2019-01-18T00:42:09.360Z,97773.64
2019-01-18T00:44:39.273Z,97777.41
2019-01-18T00:47:09.486Z,97781.93
2019-01-18T00:49:39.882Z,97784.94
2019-01-18T00:52:09.790Z,97799.58
2019-01-18T00:54:39.971Z,97805.13
2019-01-18T00:57:10.094Z,97804.52
2019-01-18T00:59:40.001Z,97803.58
2019-01-18T01:02:12.786Z,97819.30
2019-01-18T01:04:42.871Z,97824.50
2019-01-18T01:07:12.805Z,97825.62
2019-01-18T01:09:42.713Z,97831.19
2019-01-18T01:12:13.032Z,97837.05
2019-01-18T01:14:42.932Z,97835.52
2019-01-18T01:17:13.285Z,97835.37
2019-01-18T01:19:43.222Z,97832.61
2019-01-18T01:22:13.243Z,97836.45
2019-01-18T01:24:46.302Z,97837.61
2019-01-18T01:27:16.540Z,97844.14
2019-01-18T01:29:46.748Z,97843.40
2019-01-18T01:32:16.766Z,97845.39
2019-01-18T01:34:47.086Z,97849.41
2019-01-18T01:37:17.270Z,97862.50
2019-01-18T01:39:47.159Z,97863.29
2019-01-18T01:42:17.648Z,97866.26
2019-01-18T01:44:47.590Z,97872.70
2019-01-18T01:47:18.024Z,97871.52
2019-01-18T01:49:48.679Z,97876.28
2019-01-18T01:52:18.665Z,97883.05
2019-01-18T01:54:48.876Z,97885.77
2019-01-18T01:57:19.195Z,97890.84
2019-01-18T01:59:50.956Z,97890.41
2019-01-18T02:02:20.957Z,97890.61
2019-01-18T02:04:50.866Z,97894.12
2019-01-18T02:07:21.208Z,97889.31
2019-01-18T02:09:51.443Z,97891.21
2019-01-18T02:12:22.436Z,97895.06
2019-01-18T02:14:52.377Z,97896.22
2019-01-18T02:17:22.290Z,97892.81
2019-01-18T02:19:52.197Z,97903.67
2019-01-18T02:22:22.256Z,97907.47
2019-01-18T02:24:52.996Z,97915.84
2019-01-18T02:27:23.135Z,97913.02
2019-01-18T02:29:56.576Z,97912.13
2019-01-18T02:32:24.783Z,97922.08
2019-01-18T02:34:54.686Z,97918.89
2019-01-18T02:37:24.887Z,97922.19
2019-01-18T02:39:54.782Z,97932.53
2019-01-18T02:42:24.771Z,97934.95
2019-01-18T02:44:55.016Z,97939.97
2019-01-18T02:47:26.294Z,97945.04
2019-01-18T02:49:56.231Z,97941.03
2019-01-18T02:52:26.377Z,97943.70
2019-01-18T02:54:56.671Z,97942.23
2019-01-18T02:57:27.209Z,97946.32
2019-01-18T03:00:04.377Z,97947.31
2019-01-18T03:02:28.882Z,97945.95
2019-01-18T03:08:25.125Z,97950.66
2019-01-18T03:10:55.566Z,97955.14
2019-01-18T03:13:25.540Z,97953.42
2019-01-18T03:15:55.677Z,97954.26
2019-01-18T03:18:25.970Z,97953.36
2019-01-18T03:20:55.933Z,97956.39
2019-01-18T03:23:25.818Z,97960.52
2019-01-18T03:25:56.952Z,97968.50
2019-01-18T03:28:26.867Z,97980.23
2019-01-18T03:30:56.817Z,97981.70
2019-01-18T03:33:27.078Z,97981.91
2019-01-18T03:35:57.354Z,97987.25
2019-01-18T03:38:27.815Z,97989.64
2019-01-18T03:40:57.792Z,97980.73
2019-01-18T03:43:27.749Z,97993.52
2019-01-18T03:45:57.624Z,97989.25
2019-01-18T03:48:27.523Z,97993.45
2019-01-18T03:50:57.728Z,97997.42
2019-01-18T03:53:28.034Z,97996.67
2019-01-18T03:55:58.319Z,98006.66
2019-01-18T03:58:28.292Z,98006.08
2019-01-18T04:00:58.242Z,98010.41
2019-01-18T04:03:28.201Z,98012.02
2019-01-18T04:05:58.610Z,98010.80
2019-01-18T04:08:28.778Z,98011.63
2019-01-18T04:10:58.680Z,98011.41
2019-01-18T04:13:28.940Z,98011.52
2019-01-18T04:16:00.175Z,98012.52
2019-01-18T04:18:30.068Z,98018.78
2019-01-18T04:21:00.335Z,98015.77
2019-01-18T04:23:30.520Z,98018.66
2019-01-18T04:26:00.423Z,98011.56
2019-01-18T04:28:30.449Z,98015.67
2019-01-18T04:31:00.343Z,98015.89
2019-01-18T04:33:30.259Z,98015.67
2019-01-18T04:36:00.668Z,98016.11
2019-01-18T04:38:30.574Z,98018.91
2019-01-18T04:41:00.464Z,98018.58
2019-01-18T04:43:31.315Z,98017.80
2019-01-18T04:46:01.162Z,98020.79
2019-01-18T04:48:31.302Z,98021.84
2019-01-18T04:51:01.282Z,98019.63
2019-01-18T04:53:31.202Z,98022.92
2019-01-18T04:56:01.716Z,98028.70
2019-01-18T04:58:31.593Z,98037.30
2019-01-18T05:01:01.720Z,98041.93
2019-01-18T05:03:31.870Z,98034.98
2019-01-18T05:06:01.751Z,98049.36
2019-01-18T05:08:31.659Z,98045.82
2019-01-18T05:11:02.421Z,98053.31
2019-01-18T05:13:32.421Z,98056.14
2019-01-18T05:16:03.726Z,98054.99
2019-01-18T05:18:33.924Z,98059.67
2019-01-18T05:21:04.054Z,98066.39
2019-01-18T05:23:34.281Z,98074.59
2019-01-18T05:26:04.360Z,98075.84
2019-01-18T05:28:34.256Z,98077.42
2019-01-18T05:31:04.304Z,98085.94
2019-01-18T05:33:34.427Z,98095.95
2019-01-18T05:36:04.551Z,98096.44
2019-01-18T05:38:34.747Z,98099.38
2019-01-18T05:41:05.002Z,98106.22
2019-01-18T05:43:35.380Z,98108.48
2019-01-18T05:49:57.147Z,98111.66
2019-01-18T05:52:27.300Z,98119.61
2019-01-18T05:54:57.414Z,98121.44
2019-01-18T05:57:28.889Z,98131.66
2019-01-18T05:59:58.861Z,98139.52
2019-01-18T06:02:29.116Z,98136.77
2019-01-18T06:04:59.747Z,98136.55
2019-01-18T06:07:29.827Z,98138.48
2019-01-18T06:09:59.738Z,98139.47
2019-01-18T06:12:29.762Z,98145.28
2019-01-18T06:14:59.890Z,98143.81
2019-01-18T06:17:30.536Z,98150.05
2019-01-18T06:20:00.396Z,98150.48
2019-01-18T06:22:30.259Z,98147.70
2019-01-18T06:25:00.384Z,98151.34
2019-01-18T06:27:30.396Z,98153.39
2019-01-18T06:30:00.298Z,98154.98
2019-01-18T06:32:30.427Z,98158.14
2019-01-18T06:35:00.354Z,98167.74
2019-01-18T06:37:30.277Z,98169.84
2019-01-18T06:40:00.462Z,98173.82
2019-01-18T06:42:30.340Z,98175.08
2019-01-18T06:45:00.306Z,98171.95
2019-01-18T06:47:30.516Z,98184.03
2019-01-18T06:50:00.811Z,98185.59
2019-01-18T06:52:30.696Z,98182.57
2019-01-18T06:55:00.609Z,98188.27
2019-01-18T06:57:30.559Z,98183.80
2019-01-18T07:00:00.684Z,98184.17
2019-01-18T07:02:30.593Z,98192.72
2019-01-18T07:05:00.535Z,98195.46
2019-01-18T07:07:30.647Z,98202.19
2019-01-18T07:10:00.586Z,98200.38
2019-01-18T07:12:30.696Z,98210.55
2019-01-18T07:15:00.602Z,98213.16
2019-01-18T07:17:30.523Z,98220.22
2019-01-18T07:20:00.491Z,98226.38
2019-01-18T07:22:30.922Z,98229.58
2019-01-18T07:25:00.906Z,98227.99
2019-01-18T07:27:31.064Z,98230.93
2019-01-18T07:30:01.754Z,98230.20
2019-01-18T07:32:32.267Z,98233.97
2019-01-18T07:35:02.519Z,98232.70
2019-01-18T07:37:32.681Z,98241.55
2019-01-18T07:40:02.866Z,98237.34
2019-01-18T07:42:32.952Z,98248.72
2019-01-18T07:45:03.316Z,98244.05
2019-01-18T07:47:33.195Z,98251.02
2019-01-18T07:50:03.550Z,98252.67
2019-01-18T07:52:34.081Z,98257.80
2019-01-18T07:55:04.334Z,98255.44
2019-01-18T07:57:34.257Z,98256.56
2019-01-18T08:00:07.057Z,98255.08
2019-01-18T08:02:37.196Z,98259.06
2019-01-18T08:05:08.351Z,98259.84
2019-01-18T08:07:38.853Z,98264.60
2019-01-18T08:10:13.560Z,98269.74
2019-01-18T08:12:43.647Z,98271.09
2019-01-18T08:15:17.660Z,98269.84
2019-01-18T08:17:47.989Z,98275.67
2019-01-18T08:20:20.717Z,98280.00
2019-01-18T08:22:50.706Z,98278.75
2019-01-18T08:25:21.365Z,98277.45
2019-01-18T08:27:51.619Z,98286.13
2019-01-18T08:30:29.834Z,98289.17
2019-01-18T08:33:00.139Z,98294.20
2019-01-18T08:39:21.429Z,98304.16
2019-01-18T08:49:10.693Z,98293.30
2019-01-18T08:51:40.902Z,98305.53
2019-01-18T09:00:36.302Z,98312.73
2019-01-18T09:03:06.375Z,98316.14
2019-01-18T09:12:51.149Z,98325.97
2019-01-18T09:15:21.603Z,98331.30
2019-01-18T09:17:51.553Z,98329.47
2019-01-18T09:20:24.239Z,98334.47
2019-01-18T09:22:54.220Z,98333.16
2019-01-18T09:25:24.284Z,98336.22
2019-01-18T09:27:54.402Z,98338.05
2019-01-18T09:30:31.725Z,98343.25
2019-01-18T09:33:02.948Z,98344.75
2019-01-18T09:35:33.687Z,98348.44
2019-01-18T09:38:04.412Z,98353.42
2019-01-18T09:40:34.764Z,98358.03
2019-01-18T09:43:05.059Z,98363.48
2019-01-18T09:45:35.631Z,98364.06
2019-01-18T09:48:07.952Z,98361.72
2019-01-18T09:50:37.850Z,98360.86
2019-01-18T09:53:10.183Z,98368.66
2019-01-18T09:55:40.167Z,98373.12
2019-01-18T09:58:10.627Z,98370.67
2019-01-18T10:00:41.390Z,98370.02
2019-01-18T10:03:11.753Z,98370.97
2019-01-18T10:05:41.715Z,98365.28
2019-01-18T10:08:13.276Z,98370.94
2019-01-18T10:10:43.433Z,98363.63
2019-01-18T10:13:14.527Z,98362.40
2019-01-18T10:15:48.896Z,98363.19
2019-01-18T10:18:18.875Z,98355.09
2019-01-18T10:20:49.045Z,98360.66
2019-01-18T10:23:19.253Z,98358.42
2019-01-18T10:25:49.139Z,98356.70
2019-01-18T10:28:19.340Z,98362.16
2019-01-18T10:30:49.207Z,98362.05
2019-01-18T10:33:19.128Z,98354.16
2019-01-18T10:35:49.156Z,98358.25
2019-01-18T10:38:19.440Z,98353.80
2019-01-18T10:40:49.390Z,98360.97
2019-01-18T10:43:19.276Z,98355.92
2019-01-18T10:45:49.823Z,98355.05
2019-01-18T10:48:19.752Z,98351.55
2019-01-18T10:50:49.845Z,98351.57
2019-01-18T10:53:19.887Z,98355.72
2019-01-18T10:55:49.878Z,98348.27
2019-01-18T10:58:19.806Z,98354.17
2019-01-18T11:00:50.643Z,98352.47
2019-01-18T11:03:21.845Z,98356.67
2019-01-18T11:05:52.083Z,98350.59
2019-01-18T11:08:22.004Z,98350.16
2019-01-18T11:10:51.953Z,98351.20
2019-01-18T11:13:21.859Z,98350.80
2019-01-18T11:15:51.738Z,98351.33
2019-01-18T11:18:21.825Z,98346.55
2019-01-18T11:21:00.574Z,98349.75
2019-01-18T11:23:30.928Z,98352.01
2019-01-18T11:26:01.122Z,98350.87
2019-01-18T11:28:31.019Z,98348.41
2019-01-18T11:31:00.988Z,98348.73
2019-01-18T11:33:31.519Z,98345.60
2019-01-18T11:36:01.561Z,98342.59
2019-01-18T11:38:31.773Z,98349.60
2019-01-18T11:41:01.750Z,98348.42
2019-01-18T11:43:32.125Z,98348.41
2019-01-18T11:46:03.189Z,98352.01
2019-01-18T11:48:33.209Z,98347.04
2019-01-18T11:51:03.091Z,98343.83
2019-01-18T11:53:33.238Z,98342.30
2019-01-18T11:56:03.386Z,98338.48
2019-01-18T11:58:33.695Z,98335.50
2019-01-18T12:01:03.633Z,98339.31
2019-01-18T12:03:33.545Z,98338.67
2019-01-18T12:06:03.454Z,98336.44
2019-01-18T12:08:33.492Z,98330.24
2019-01-18T12:11:03.401Z,98330.44
2019-01-18T12:13:33.387Z,98327.67
2019-01-18T12:16:03.707Z,98324.85
2019-01-18T12:18:33.939Z,98324.99
2019-01-18T12:21:03.859Z,98325.59
2019-01-18T12:23:33.785Z,98326.40
2019-01-18T12:26:03.687Z,98328.66
2019-01-18T12:28:33.705Z,98321.48
2019-01-18T12:31:03.857Z,98322.83
2019-01-18T12:33:34.067Z,98316.91
2019-01-18T12:36:04.044Z,98313.64
2019-01-18T12:42:25.870Z,98316.85
2019-01-18T12:44:55.767Z,98309.19
2019-01-18T12:47:25.906Z,98313.75
2019-01-18T12:49:56.250Z,98313.88
2019-01-18T12:56:16.813Z,98310.42
2019-01-18T12:58:46.747Z,98309.03
2019-01-18T13:01:16.990Z,98310.57
2019-01-18T13:03:46.885Z,98312.86
2019-01-18T13:06:17.472Z,98313.98
2019-01-18T13:08:47.546Z,98311.70
2019-01-18T13:11:17.711Z,98309.71
2019-01-18T13:13:47.660Z,98306.91
2019-01-18T13:16:34.931Z,98303.64
2019-01-18T13:19:12.964Z,98300.56
2019-01-18T13:21:43.146Z,98307.55
2019-01-18T13:24:13.032Z,98305.11
2019-01-18T13:26:43.924Z,98305.40
2019-01-18T13:29:13.859Z,98304.67
2019-01-18T13:31:43.997Z,98302.63
2019-01-18T13:34:14.196Z,98305.61
2019-01-18T13:36:45.055Z,98302.90
2019-01-18T13:39:14.961Z,98302.37
2019-01-18T13:41:44.855Z,98308.02
2019-01-18T13:44:17.911Z,98312.43
2019-01-18T13:46:47.952Z,98309.59
2019-01-18T13:49:18.141Z,98311.29
2019-01-18T13:51:48.170Z,98309.69
2019-01-18T13:54:18.333Z,98312.69
2019-01-18T13:56:48.629Z,98311.63
2019-01-18T13:59:18.754Z,98313.53
2019-01-18T14:01:48.986Z,98317.77
2019-01-18T14:04:19.207Z,98316.11
2019-01-18T14:06:49.077Z,98316.50
2019-01-18T14:09:19.265Z,98317.45
2019-01-18T14:11:55.636Z,98321.89
2019-01-18T14:14:21.790Z,98318.28
2019-01-18T14:16:51.925Z,98311.55
2019-01-18T14:19:21.840Z,98318.63
2019-01-18T14:21:51.831Z,98321.89
2019-01-18T14:24:21.781Z,98321.81
2019-01-18T14:26:51.927Z,98311.89
2019-01-18T14:29:21.894Z,98313.08
2019-01-18T14:31:52.066Z,98314.95
2019-01-18T14:34:22.066Z,98310.22
2019-01-18T14:36:52.020Z,98311.32
2019-01-18T14:39:22.155Z,98315.32
2019-01-18T14:41:52.062Z,98315.98
2019-01-18T14:44:22.763Z,98311.44
2019-01-18T14:46:52.658Z,98314.42
2019-01-18T14:49:22.798Z,98315.72
2019-01-18T14:51:53.055Z,98312.56
2019-01-18T14:54:23.111Z,98315.80
2019-01-18T14:56:53.280Z,98311.21
2019-01-18T14:59:24.055Z,98313.91
2019-01-18T15:01:54.641Z,98319.28
2019-01-18T15:04:24.760Z,98314.31
2019-01-18T15:06:54.973Z,98319.03
2019-01-18T15:09:25.004Z,98314.81
2019-01-18T15:11:56.264Z,98316.61
2019-01-18T15:14:26.681Z,98320.81
2019-01-18T15:20:48.022Z,98315.42
2019-01-18T15:41:21.028Z,98316.08
2019-01-18T15:43:51.315Z,98320.51
2019-01-18T15:46:21.393Z,98319.34
2019-01-18T15:48:51.613Z,98316.95
2019-01-18T15:51:21.793Z,98316.80
2019-01-18T15:53:51.719Z,98320.97
2019-01-18T15:56:21.780Z,98314.34
2019-01-18T15:58:51.994Z,98311.27
2019-01-18T16:01:22.025Z,98313.97
2019-01-18T16:03:51.936Z,98309.73
2019-01-18T16:06:22.093Z,98318.67
2019-01-18T16:08:52.550Z,98319.81
2019-01-18T16:11:22.481Z,98317.83
2019-01-18T16:13:52.624Z,98317.52
2019-01-18T16:16:32.605Z,98314.69
2019-01-18T16:19:03.041Z,98317.98
2019-01-18T16:21:35.452Z,98317.52
2019-01-18T16:24:05.966Z,98311.96
2019-01-18T16:26:37.319Z,98311.38
2019-01-18T16:29:07.325Z,98313.30
2019-01-18T16:31:37.347Z,98314.45
2019-01-18T16:34:07.357Z,98313.70
2019-01-18T16:36:37.403Z,98311.96
2019-01-18T16:39:10.601Z,98312.50
2019-01-18T16:41:41.640Z,98312.75
2019-01-18T16:44:11.657Z,98312.67
2019-01-18T16:46:42.619Z,98312.00
2019-01-18T16:49:12.768Z,98310.34
2019-01-18T16:51:42.647Z,98307.77
2019-01-18T16:54:13.138Z,98305.39
2019-01-18T16:56:43.306Z,98300.23
2019-01-18T16:59:13.541Z,98297.82
2019-01-18T17:01:43.772Z,98293.08
2019-01-18T17:04:14.061Z,98292.58
2019-01-18T17:06:44.593Z,98294.16
2019-01-18T17:09:14.620Z,98290.98
2019-01-18T17:11:44.786Z,98285.20
2019-01-18T17:14:15.040Z,98288.84
2019-01-18T17:16:45.153Z,98295.98
2019-01-18T17:19:17.030Z,98291.55
2019-01-18T17:21:47.264Z,98285.00
2019-01-18T17:24:17.408Z,98280.66
2019-01-18T17:26:47.847Z,98284.73
2019-01-18T17:29:17.750Z,98283.45
2019-01-18T17:31:47.683Z,98286.67
2019-01-18T17:34:17.898Z,98285.04
2019-01-18T17:36:59.871Z,98284.53
2019-01-18T17:40:21.772Z,98284.30
2019-01-18T17:43:13.392Z,98286.45
2019-01-18T17:46:32.992Z,98284.84
2019-01-18T17:49:48.348Z,98288.84
2019-01-18T17:53:11.501Z,98284.98
2019-01-18T17:56:34.633Z,98283.16
2019-01-18T17:59:50.559Z,98288.30
2019-01-18T18:03:24.260Z,98286.43
2019-01-18T18:06:47.852Z,98286.25
2019-01-18T18:10:06.145Z,98287.70
2019-01-18T18:13:09.909Z,98287.30
2019-01-18T18:17:01.279Z,98286.77
2019-01-18T18:20:12.463Z,98285.47
2019-01-18T18:23:54.286Z,98287.38
2019-01-18T18:27:16.593Z,98279.98
2019-01-18T18:30:27.586Z,98289.22
2019-01-18T18:33:50.619Z,98280.47
2019-01-18T18:37:11.644Z,98272.22
2019-01-18T18:40:41.630Z,98278.12
2019-01-18T18:43:41.888Z,98270.30
2019-01-18T18:47:00.745Z,98267.61
2019-01-18T18:50:14.842Z,98272.02
2019-01-18T18:53:31.160Z,98267.28
2019-01-18T18:56:30.306Z,98266.41
2019-01-18T18:59:23.936Z,98256.23
2019-01-18T19:02:42.946Z,98259.86
2019-01-18T19:05:42.985Z,98249.72
2019-01-18T19:08:59.931Z,98248.19
2019-01-18T19:12:04.176Z,98247.40
2019-01-18T19:16:07.746Z,98239.16
2019-01-18T19:19:02.919Z,98245.44
2019-01-18T19:22:27.791Z,98242.59
2019-01-18T19:25:36.384Z,98242.90
2019-01-18T19:28:47.340Z,98240.44
2019-01-18T19:32:53.922Z,98238.56
2019-01-18T19:36:13.969Z,98235.30
2019-01-18T19:39:43.050Z,98234.97
2019-01-18T19:43:16.164Z,98227.70
2019-01-18T19:46:33.071Z,98231.84
2019-01-18T19:50:01.672Z,98229.02
2019-01-18T19:53:03.717Z,98224.38
2019-01-18T19:56:30.335Z,98220.21
2019-01-18T19:59:45.649Z,98223.44
2019-01-18T20:02:56.115Z,98225.52
2019-01-18T20:06:21.884Z,98223.29
2019-01-18T20:10:01.965Z,98226.95
2019-01-18T20:13:20.541Z,98226.91
2019-01-18T20:16:51.297Z,98223.48
2019-01-18T20:20:30.322Z,98226.19
2019-01-18T20:24:04.105Z,98223.48
2019-01-18T20:27:34.673Z,98221.45
2019-01-18T20:31:06.324Z,98224.47
2019-01-18T20:34:30.280Z,98223.89
2019-01-18T20:37:53.151Z,98224.02
2019-01-18T20:41:15.407Z,98227.69
2019-01-18T20:44:20.365Z,98231.98
2019-01-18T20:47:48.535Z,98219.30
2019-01-18T20:50:35.614Z,98227.86
2019-01-18T20:54:01.001Z,98218.78
2019-01-18T20:57:06.083Z,98219.69
2019-01-18T21:00:07.116Z,98227.80
2019-01-18T21:03:31.564Z,98223.76
2019-01-18T21:06:31.858Z,98231.16
2019-01-18T21:09:38.403Z,98222.44
2019-01-18T21:12:39.159Z,98222.86
2019-01-18T21:16:04.893Z,98228.78
2019-01-18T21:19:08.364Z,98229.00
2019-01-18T21:23:01.089Z,98228.02
2019-01-18T21:26:01.409Z,98227.77
2019-01-18T21:29:20.938Z,98231.68
2019-01-18T21:32:55.415Z,98223.50
2019-01-18T21:36:24.651Z,98225.00
2019-01-18T21:40:06.966Z,98232.58
2019-01-18T21:43:31.453Z,98232.88
2019-01-18T21:47:07.993Z,98229.50
2019-01-18T21:50:03.236Z,98227.46
2019-01-18T21:53:27.186Z,98228.55
2019-01-18T21:56:46.059Z,98234.47
2019-01-18T21:59:57.890Z,98238.95
2019-01-18T22:03:07.663Z,98232.20
2019-01-18T22:06:39.983Z,98232.31
2019-01-18T22:10:05.738Z,98233.98
2019-01-18T22:13:29.000Z,98236.64
2019-01-18T22:17:02.921Z,98237.55
2019-01-18T22:20:44.998Z,98231.86
2019-01-18T22:23:52.360Z,98235.61
2019-01-18T22:27:08.016Z,98231.52
2019-01-18T22:30:43.056Z,98226.91
2019-01-18T22:34:03.269Z,98232.86
2019-01-18T22:37:24.797Z,98233.81
2019-01-18T22:40:48.818Z,98234.55
2019-01-18T22:44:32.703Z,98232.59
2019-01-18T22:47:55.949Z,98231.52
2019-01-18T22:51:20.482Z,98228.88
2019-01-18T22:54:53.642Z,98227.63
2019-01-18T22:57:55.614Z,98223.27
2019-01-18T23:01:18.857Z,98221.59
2019-01-18T23:04:10.691Z,98223.55
2019-01-18T23:07:40.395Z,98213.06
2019-01-18T23:11:21.175Z,98218.89
2019-01-18T23:14:23.981Z,98216.06
2019-01-18T23:17:36.169Z,98213.28
2019-01-18T23:21:12.808Z,98210.83
2019-01-18T23:24:18.073Z,98210.87
2019-01-18T23:27:30.711Z,98211.14
2019-01-18T23:30:23.812Z,98203.41
2019-01-18T23:33:44.902Z,98200.92
2019-01-18T23:36:50.612Z,98207.05
2019-01-18T23:40:14.601Z,98200.95
2019-01-18T23:43:32.499Z,98197.23
2019-01-18T23:47:03.471Z,98191.11
2019-01-18T23:50:16.438Z,98193.97
2019-01-18T23:53:49.445Z,98189.53
2019-01-18T23:57:24.729Z,98183.89
